createdAt,value
2017-05-23T00:01:01.571Z,1017.7
2017-05-23T00:02:04.283Z,1017.7
2017-05-23T00:03:06.999Z,1017.7
2017-05-23T00:04:10.149Z,1017.7
2017-05-23T00:05:12.496Z,1017.7
2017-05-23T00:07:18.260Z,1017.7
2017-05-23T00:08:20.600Z,1017.7
2017-05-23T00:09:23.749Z,1017.7
2017-05-23T00:10:26.460Z,1017.7
2017-05-23T00:12:31.713Z,1017.6
2017-05-23T00:13:34.561Z,1017.6
2017-05-23T00:15:40.572Z,1017.6
2017-05-23T00:16:42.914Z,1017.6
2017-05-23T00:17:45.764Z,1017.7
2017-05-23T00:18:48.105Z,1017.6
2017-05-23T00:19:50.957Z,1017.6
2017-05-23T00:20:54.053Z,1017.6
2017-05-23T00:21:56.764Z,1017.6
2017-05-23T00:22:59.102Z,1017.6
2017-05-23T00:24:02.005Z,1017.6
2017-05-23T00:25:04.861Z,1017.6
2017-05-23T00:26:07.959Z,1017.6
2017-05-23T00:27:10.319Z,1017.6
2017-05-23T00:28:13.166Z,1017.6
2017-05-23T00:29:16.018Z,1017.6
2017-05-23T00:30:18.362Z,1017.6
2017-05-23T00:31:21.464Z,1017.5
2017-05-23T00:32:24.175Z,1017.5
2017-05-23T00:33:27.042Z,1017.5
2017-05-23T00:34:29.762Z,1017.5
2017-05-23T00:35:32.108Z,1017.5
2017-05-23T00:36:35.205Z,1017.5
2017-05-23T00:37:37.546Z,1017.5
2017-05-23T00:38:40.474Z,1017.4
2017-05-23T00:39:43.333Z,1017.5
2017-05-23T00:40:46.185Z,1017.5
2017-05-23T00:41:48.777Z,1017.4
2017-05-23T00:42:51.617Z,1017.5
2017-05-23T00:43:54.465Z,1017.4
2017-05-23T00:44:56.809Z,1017.4
2017-05-23T00:45:59.520Z,1017.5
2017-05-23T00:47:02.535Z,1017.5
2017-05-23T00:48:05.385Z,1017.5
2017-05-23T00:49:08.111Z,1017.4
2017-05-23T00:50:10.464Z,1017.4
2017-05-23T00:51:13.544Z,1017.4
2017-05-23T00:52:16.639Z,1017.4
2017-05-23T00:53:18.850Z,1017.4
2017-05-23T00:54:21.564Z,1017.4
2017-05-23T00:55:24.410Z,1017.4
2017-05-23T00:56:27.122Z,1017.4
2017-05-23T00:57:30.268Z,1017.4
2017-05-23T00:58:32.612Z,1017.4
2017-05-23T00:59:35.460Z,1017.4
2017-05-23T01:00:38.303Z,1017.4
2017-05-23T01:01:41.014Z,1017.4
2017-05-23T01:02:43.610Z,1017.4
2017-05-23T01:03:46.450Z,1017.4
2017-05-23T01:04:48.796Z,1017.4
2017-05-23T01:06:54.555Z,1017.4
2017-05-23T01:07:57.659Z,1017.4
2017-05-23T01:09:00.004Z,1017.4
2017-05-23T01:10:02.714Z,1017.4
2017-05-23T01:11:05.289Z,1017.4
2017-05-23T01:12:08.132Z,1017.3
2017-05-23T01:13:11.227Z,1017.3
2017-05-23T01:14:13.566Z,1017.4
2017-05-23T01:15:16.413Z,1017.4
2017-05-23T01:16:19.254Z,1017.3
2017-05-23T01:17:22.098Z,1017.3
2017-05-23T01:18:25.058Z,1017.3
2017-05-23T01:19:27.402Z,1017.4
2017-05-23T01:20:30.256Z,1017.3
2017-05-23T01:21:32.970Z,1017.4
2017-05-23T01:22:35.310Z,1017.4
2017-05-23T01:23:38.405Z,1017.4
2017-05-23T01:24:40.752Z,1017.4
2017-05-23T01:25:43.596Z,1017.4
2017-05-23T01:26:46.443Z,1017.4
2017-05-23T01:27:49.291Z,1017.4
2017-05-23T01:28:52.382Z,1017.4
2017-05-23T01:29:54.594Z,1017.4
2017-05-23T01:30:57.441Z,1017.4
2017-05-23T01:32:00.285Z,1017.4
2017-05-23T01:33:02.630Z,1017.4
2017-05-23T01:34:06.096Z,1017.3
2017-05-23T01:35:08.438Z,1017.3
2017-05-23T01:36:11.281Z,1017.3
2017-05-23T01:37:13.626Z,1017.3
2017-05-23T01:38:16.473Z,1017.3
2017-05-23T01:39:19.578Z,1017.3
2017-05-23T01:40:21.916Z,1017.3
2017-05-23T01:41:24.757Z,1017.3
2017-05-23T01:42:27.645Z,1017.3
2017-05-23T01:43:29.992Z,1017.2
2017-05-23T01:44:33.093Z,1017.3
2017-05-23T01:45:35.804Z,1017.3
2017-05-23T01:46:38.645Z,1017.3
2017-05-23T01:47:40.985Z,1017.3
2017-05-23T01:48:43.837Z,1017.3
2017-05-23T01:49:46.942Z,1017.3
2017-05-23T01:50:49.153Z,1017.3
2017-05-23T01:51:52.003Z,1017.3
2017-05-23T01:52:54.848Z,1017.4
2017-05-23T01:53:57.704Z,1017.3
2017-05-23T01:55:00.351Z,1017.3
2017-05-23T01:56:03.197Z,1017.4
2017-05-23T01:57:05.540Z,1017.3
2017-05-23T01:58:08.386Z,1017.3
2017-05-23T01:59:10.970Z,1017.4
2017-05-23T02:00:14.066Z,1017.4
2017-05-23T02:01:16.411Z,1017.3
2017-05-23T02:02:19.261Z,1017.3
2017-05-23T02:03:22.112Z,1017.3
2017-05-23T02:04:24.966Z,1017.3
2017-05-23T02:05:27.563Z,1017.3
2017-05-23T02:06:30.415Z,1017.3
2017-05-23T02:07:32.764Z,1017.4
2017-05-23T02:08:35.608Z,1017.4
2017-05-23T02:09:38.459Z,1017.4
2017-05-23T02:10:41.288Z,1017.4
2017-05-23T02:11:44.134Z,1017.4
2017-05-23T02:12:46.485Z,1017.4
2017-05-23T02:13:49.330Z,1017.4
2017-05-23T02:15:54.841Z,1017.4
2017-05-23T02:16:57.686Z,1017.3
2017-05-23T02:18:00.405Z,1017.4
2017-05-23T02:19:02.749Z,1017.3
2017-05-23T02:20:05.463Z,1017.4
2017-05-23T02:21:08.805Z,1017.4
2017-05-23T02:22:11.159Z,1017.4
2017-05-23T02:23:14.013Z,1017.4
2017-05-23T02:24:16.363Z,1017.4
2017-05-23T02:25:19.219Z,1017.4
2017-05-23T02:26:22.326Z,1017.4
2017-05-23T02:27:24.670Z,1017.4
2017-05-23T02:28:27.757Z,1017.4
2017-05-23T02:29:30.105Z,1017.4
2017-05-23T02:30:32.969Z,1017.4
2017-05-23T02:31:36.123Z,1017.4
2017-05-23T02:32:38.478Z,1017.4
2017-05-23T02:33:41.325Z,1017.4
2017-05-23T02:34:43.674Z,1017.4
2017-05-23T02:35:46.528Z,1017.5
2017-05-23T02:36:49.633Z,1017.5
2017-05-23T02:37:51.977Z,1017.4
2017-05-23T02:38:54.823Z,1017.5
2017-05-23T02:39:57.674Z,1017.5
2017-05-23T02:41:00.199Z,1017.5
2017-05-23T02:42:03.301Z,1017.5
2017-05-23T02:43:05.515Z,1017.5
2017-05-23T02:44:08.363Z,1017.5
2017-05-23T02:45:11.222Z,1017.4
2017-05-23T02:46:13.573Z,1017.5
2017-05-23T02:47:16.674Z,1017.5
2017-05-23T02:48:19.024Z,1017.5
2017-05-23T02:49:21.876Z,1017.4
2017-05-23T02:50:24.734Z,1017.5
2017-05-23T02:51:27.581Z,1017.4
2017-05-23T02:52:30.178Z,1017.4
2017-05-23T02:53:33.027Z,1017.4
2017-05-23T02:54:35.370Z,1017.4
2017-05-23T02:55:38.215Z,1017.4
2017-05-23T02:56:41.065Z,1017.4
2017-05-23T02:57:43.903Z,1017.4
2017-05-23T02:58:46.259Z,1017.4
2017-05-23T02:59:49.385Z,1017.4
2017-05-23T03:00:51.735Z,1017.4
2017-05-23T03:01:54.586Z,1017.4
2017-05-23T03:02:57.689Z,1017.4
2017-05-23T03:04:00.038Z,1017.5
2017-05-23T03:05:02.886Z,1017.5
2017-05-23T03:06:05.734Z,1017.5
2017-05-23T03:07:08.131Z,1017.5
2017-05-23T03:08:11.289Z,1017.4
2017-05-23T03:09:13.636Z,1017.5
2017-05-23T03:10:16.487Z,1017.5
2017-05-23T03:11:19.379Z,1017.5
2017-05-23T03:12:21.739Z,1017.5
2017-05-23T03:13:24.843Z,1017.5
2017-05-23T03:14:27.056Z,1017.5
2017-05-23T03:15:29.834Z,1017.5
2017-05-23T03:16:32.682Z,1017.5
2017-05-23T03:17:35.533Z,1017.5
2017-05-23T03:18:38.139Z,1017.5
2017-05-23T03:19:40.994Z,1017.5
2017-05-23T03:20:43.710Z,1017.5
2017-05-23T03:21:46.058Z,1017.4
2017-05-23T03:22:48.909Z,1017.4
2017-05-23T03:23:52.012Z,1017.4
2017-05-23T03:24:54.226Z,1017.4
2017-05-23T03:25:56.942Z,1017.4
2017-05-23T03:26:59.655Z,1017.4
2017-05-23T03:28:02.423Z,1017.4
2017-05-23T03:29:05.524Z,1017.4
2017-05-23T03:30:07.875Z,1017.3
2017-05-23T03:31:10.730Z,1017.4
2017-05-23T03:32:13.577Z,1017.4
2017-05-23T03:33:16.295Z,1017.4
2017-05-23T03:34:18.946Z,1017.4
2017-05-23T03:35:21.298Z,1017.4
2017-05-23T03:36:24.149Z,1017.4
2017-05-23T03:37:27.000Z,1017.4
2017-05-23T03:39:32.566Z,1017.4
2017-05-23T03:40:34.923Z,1017.3
2017-05-23T03:41:37.774Z,1017.4
2017-05-23T03:42:40.633Z,1017.4
2017-05-23T03:43:43.486Z,1017.3
2017-05-23T03:44:46.085Z,1017.3
2017-05-23T03:45:48.939Z,1017.3
2017-05-23T03:46:51.286Z,1017.3
2017-05-23T03:47:54.138Z,1017.3
2017-05-23T03:48:57.059Z,1017.3
2017-05-23T03:49:59.658Z,1017.3
2017-05-23T03:51:02.509Z,1017.3
2017-05-23T03:52:04.850Z,1017.3
2017-05-23T03:53:07.702Z,1017.4
2017-05-23T03:54:10.550Z,1017.4
2017-05-23T03:55:13.653Z,1017.4
2017-05-23T03:56:16.004Z,1017.4
2017-05-23T03:57:18.854Z,1017.4
2017-05-23T03:58:21.200Z,1017.4
2017-05-23T03:59:24.058Z,1017.4
2017-05-23T04:00:27.024Z,1017.4
2017-05-23T04:01:29.735Z,1017.4
2017-05-23T04:02:32.084Z,1017.4
2017-05-23T04:03:34.935Z,1017.4
2017-05-23T04:04:37.583Z,1017.4
2017-05-23T04:05:40.685Z,1017.4
2017-05-23T04:06:43.083Z,1017.5
2017-05-23T04:07:45.940Z,1017.5
2017-05-23T04:08:48.790Z,1017.5
2017-05-23T04:09:51.136Z,1017.5
2017-05-23T04:10:54.421Z,1017.5
2017-05-23T04:11:56.632Z,1017.5
2017-05-23T04:12:59.342Z,1017.5
2017-05-23T04:14:02.194Z,1017.5
2017-05-23T04:15:04.908Z,1017.5
2017-05-23T04:17:10.923Z,1017.5
2017-05-23T04:18:13.266Z,1017.5
2017-05-23T04:19:16.118Z,1017.6
2017-05-23T04:20:18.972Z,1017.6
2017-05-23T04:21:21.318Z,1017.6
2017-05-23T04:22:24.419Z,1017.6
2017-05-23T04:23:26.764Z,1017.6
2017-05-23T04:24:29.636Z,1017.6
2017-05-23T04:25:32.652Z,1017.6
2017-05-23T04:26:35.366Z,1017.7
2017-05-23T04:27:38.117Z,1017.7
2017-05-23T04:28:40.465Z,1017.7
2017-05-23T04:29:43.317Z,1017.6
2017-05-23T04:30:46.164Z,1017.6
2017-05-23T04:31:49.015Z,1017.6
2017-05-23T04:32:52.122Z,1017.6
2017-05-23T04:33:54.197Z,1017.6
2017-05-23T04:34:57.048Z,1017.7
2017-05-23T04:35:59.893Z,1017.7
2017-05-23T04:37:02.475Z,1017.7
2017-05-23T04:38:05.579Z,1017.7
2017-05-23T04:39:07.933Z,1017.7
2017-05-23T04:40:10.787Z,1017.7
2017-05-23T04:41:13.641Z,1017.7
2017-05-23T04:42:16.491Z,1017.8
2017-05-23T04:43:19.320Z,1017.7
2017-05-23T04:44:21.666Z,1017.7
2017-05-23T04:45:24.517Z,1017.7
2017-05-23T04:46:27.424Z,1017.7
2017-05-23T04:47:30.275Z,1017.7
2017-05-23T04:48:33.244Z,1017.7
2017-05-23T04:49:35.588Z,1017.7
2017-05-23T04:50:38.435Z,1017.7
2017-05-23T04:51:41.287Z,1017.6
2017-05-23T04:52:44.194Z,1017.7
2017-05-23T04:53:46.805Z,1017.6
2017-05-23T04:55:52.067Z,1017.7
2017-05-23T04:56:55.288Z,1017.7
2017-05-23T04:57:57.649Z,1017.7
2017-05-23T04:59:00.765Z,1017.6
2017-05-23T05:00:03.619Z,1017.7
2017-05-23T05:01:05.962Z,1017.6
2017-05-23T05:02:08.808Z,1017.6
2017-05-23T05:03:11.529Z,1017.6
2017-05-23T05:04:14.627Z,1017.6
2017-05-23T05:05:17.205Z,1017.7
2017-05-23T05:06:20.050Z,1017.6
2017-05-23T05:07:22.899Z,1017.7
2017-05-23T05:08:25.614Z,1017.7
2017-05-23T05:09:28.444Z,1017.7
2017-05-23T05:10:31.297Z,1017.7
2017-05-23T05:11:33.642Z,1017.7
2017-05-23T05:12:36.490Z,1017.7
2017-05-23T05:13:39.344Z,1017.7
2017-05-23T05:14:42.442Z,1017.7
2017-05-23T05:15:44.790Z,1017.7
2017-05-23T05:16:48.103Z,1017.7
2017-05-23T05:17:50.817Z,1017.8
2017-05-23T05:18:53.535Z,1017.7
2017-05-23T05:19:56.641Z,1017.7
2017-05-23T05:20:58.986Z,1017.7
2017-05-23T05:22:01.835Z,1017.7
2017-05-23T05:23:04.557Z,1017.8
2017-05-23T05:24:07.406Z,1017.7
2017-05-23T05:25:10.139Z,1017.8
2017-05-23T05:26:12.991Z,1017.7
2017-05-23T05:27:15.572Z,1017.7
2017-05-23T05:28:18.420Z,1017.7
2017-05-23T05:29:21.266Z,1017.8
2017-05-23T05:30:24.369Z,1017.7
2017-05-23T05:31:26.708Z,1017.8
2017-05-23T05:32:29.559Z,1017.8
2017-05-23T05:33:32.401Z,1017.8
2017-05-23T05:34:35.115Z,1017.8
2017-05-23T05:35:38.269Z,1017.8
2017-05-23T05:36:40.616Z,1017.8
2017-05-23T05:37:43.463Z,1017.8
2017-05-23T05:38:46.317Z,1017.8
2017-05-23T05:39:49.170Z,1017.8
2017-05-23T05:40:52.187Z,1017.8
2017-05-23T05:41:54.905Z,1017.8
2017-05-23T05:42:57.618Z,1017.8
2017-05-23T05:44:00.336Z,1017.8
2017-05-23T05:45:03.057Z,1017.8
2017-05-23T05:46:06.020Z,1017.8
2017-05-23T05:47:08.930Z,1017.8
2017-05-23T05:48:11.782Z,1017.8
2017-05-23T05:49:14.193Z,1017.8
2017-05-23T05:50:17.105Z,1017.8
2017-05-23T05:51:20.209Z,1017.8
2017-05-23T05:52:23.059Z,1017.8
2017-05-23T05:53:25.463Z,1017.7
2017-05-23T05:54:28.314Z,1017.8
2017-05-23T05:55:31.161Z,1017.8
2017-05-23T05:56:34.314Z,1017.8
2017-05-23T05:57:36.663Z,1017.8
2017-05-23T05:58:39.520Z,1017.7
2017-05-23T05:59:42.605Z,1017.8
2017-05-23T06:00:45.464Z,1017.8
2017-05-23T06:01:48.563Z,1017.8
2017-05-23T06:02:50.913Z,1017.9
2017-05-23T06:03:53.633Z,1017.8
2017-05-23T06:04:56.521Z,1017.9
2017-05-23T06:05:59.370Z,1017.9
2017-05-23T06:07:02.533Z,1017.8
2017-05-23T06:08:04.880Z,1017.8
2017-05-23T06:09:08.031Z,1017.8
2017-05-23T06:10:10.892Z,1017.8
2017-05-23T06:11:13.741Z,1017.8
2017-05-23T06:12:16.716Z,1017.8
2017-05-23T06:13:19.065Z,1017.8
2017-05-23T06:14:22.289Z,1017.8
2017-05-23T06:15:25.006Z,1017.8
2017-05-23T06:16:27.725Z,1017.8
2017-05-23T06:17:30.825Z,1017.7
2017-05-23T06:18:33.677Z,1017.8
2017-05-23T06:19:36.536Z,1017.8
2017-05-23T06:20:39.386Z,1017.7
2017-05-23T06:21:42.234Z,1017.7
2017-05-23T06:22:45.387Z,1017.8
2017-05-23T06:23:47.602Z,1017.8
2017-05-23T06:24:50.820Z,1017.7
2017-05-23T06:25:53.673Z,1017.8
2017-05-23T06:26:56.520Z,1017.7
2017-05-23T06:27:59.627Z,1017.8
2017-05-23T06:29:01.977Z,1017.7
2017-05-23T06:30:04.695Z,1017.7
2017-05-23T06:31:07.913Z,1017.7
2017-05-23T06:32:10.769Z,1017.7
2017-05-23T06:33:13.871Z,1017.6
2017-05-23T06:34:16.095Z,1017.6
2017-05-23T06:35:18.946Z,1017.6
2017-05-23T06:36:22.164Z,1017.6
2017-05-23T06:37:25.016Z,1017.6
2017-05-23T06:38:27.986Z,1017.6
2017-05-23T06:39:30.838Z,1017.6
2017-05-23T06:40:33.693Z,1017.6
2017-05-23T06:41:36.544Z,1017.6
2017-05-23T06:43:42.623Z,1017.6
2017-05-23T06:44:44.973Z,1017.6
2017-05-23T06:45:47.877Z,1017.6
2017-05-23T06:46:50.792Z,1017.6
2017-05-23T06:47:53.643Z,1017.6
2017-05-23T06:48:56.742Z,1017.6
2017-05-23T06:49:59.324Z,1017.6
2017-05-23T06:51:02.176Z,1017.6
2017-05-23T06:52:05.096Z,1017.5
2017-05-23T06:53:07.810Z,1017.6
2017-05-23T06:54:11.419Z,1017.6
2017-05-23T06:55:13.627Z,1017.6
2017-05-23T06:56:16.848Z,1017.5
2017-05-23T06:57:19.698Z,1017.6
2017-05-23T06:58:22.548Z,1017.5
2017-05-23T06:59:25.644Z,1017.5
2017-05-23T07:00:28.371Z,1017.5
2017-05-23T07:01:31.223Z,1017.5
2017-05-23T07:02:34.072Z,1017.5
2017-05-23T07:03:36.918Z,1017.5
2017-05-23T07:04:40.067Z,1017.5
2017-05-23T07:05:42.782Z,1017.5
2017-05-23T07:06:45.374Z,1017.5
2017-05-23T07:07:48.459Z,1017.5
2017-05-23T07:08:51.307Z,1017.5
2017-05-23T07:09:54.413Z,1017.5
2017-05-23T07:10:57.134Z,1017.5
2017-05-23T07:11:59.989Z,1017.5
2017-05-23T07:13:02.841Z,1017.6
2017-05-23T07:14:05.687Z,1017.5
2017-05-23T07:15:09.154Z,1017.6
2017-05-23T07:16:11.371Z,1017.6
2017-05-23T07:17:14.587Z,1017.6
2017-05-23T07:18:17.306Z,1017.5
2017-05-23T07:19:20.159Z,1017.6
2017-05-23T07:20:23.262Z,1017.6
2017-05-23T07:21:26.106Z,1017.6
2017-05-23T07:22:28.820Z,1017.6
2017-05-23T07:23:31.732Z,1017.6
2017-05-23T07:24:34.593Z,1017.6
2017-05-23T07:25:37.744Z,1017.6
2017-05-23T07:26:40.598Z,1017.6
2017-05-23T07:27:43.442Z,1017.6
2017-05-23T07:28:46.162Z,1017.6
2017-05-23T07:29:49.027Z,1017.6
2017-05-23T07:30:52.361Z,1017.6
2017-05-23T07:31:55.212Z,1017.6
2017-05-23T07:32:58.066Z,1017.6
2017-05-23T07:34:00.913Z,1017.6
2017-05-23T07:35:03.762Z,1017.6
2017-05-23T07:36:06.875Z,1017.6
2017-05-23T07:37:09.729Z,1017.7
2017-05-23T07:38:12.577Z,1017.6
2017-05-23T07:39:15.290Z,1017.7
2017-05-23T07:40:18.379Z,1017.6
2017-05-23T07:41:21.479Z,1017.7
2017-05-23T07:42:23.832Z,1017.7
2017-05-23T07:43:26.925Z,1017.7
2017-05-23T07:44:29.772Z,1017.7
2017-05-23T07:45:33.044Z,1017.6
2017-05-23T07:46:36.193Z,1017.7
2017-05-23T07:47:38.540Z,1017.7
2017-05-23T07:48:41.397Z,1017.7
2017-05-23T07:49:44.488Z,1017.7
2017-05-23T07:50:47.336Z,1017.7
2017-05-23T07:51:50.541Z,1017.7
2017-05-23T07:52:53.252Z,1017.7
2017-05-23T07:53:56.104Z,1017.7
2017-05-23T07:54:58.829Z,1017.7
2017-05-23T07:56:02.055Z,1017.7
2017-05-23T07:57:05.159Z,1017.8
2017-05-23T07:58:07.508Z,1017.7
2017-05-23T07:59:10.860Z,1017.7
2017-05-23T08:00:13.714Z,1017.7
2017-05-23T08:01:16.437Z,1017.8
2017-05-23T08:02:19.402Z,1017.8
2017-05-23T08:02:49.403Z,1017.8
2017-05-23T08:03:22.565Z,1017.7
2017-05-23T08:04:25.281Z,1017.7
2017-05-23T08:05:27.995Z,1017.8
2017-05-23T08:06:30.850Z,1017.8
2017-05-23T08:07:34.184Z,1017.7
2017-05-23T08:08:37.037Z,1017.7
2017-05-23T08:09:39.893Z,1017.8
2017-05-23T08:10:42.750Z,1017.8
2017-05-23T08:11:45.527Z,1017.7
2017-05-23T08:12:49.184Z,1017.7
2017-05-23T08:13:51.540Z,1017.8
2017-05-23T08:14:54.390Z,1017.8
2017-05-23T08:15:57.243Z,1017.8
2017-05-23T08:17:00.522Z,1017.8
2017-05-23T08:18:03.541Z,1017.7
2017-05-23T08:19:06.396Z,1017.8
2017-05-23T08:20:09.247Z,1017.8
2017-05-23T08:21:11.966Z,1017.8
2017-05-23T08:22:14.819Z,1017.8
2017-05-23T08:23:18.158Z,1017.8
2017-05-23T08:24:21.015Z,1017.8
2017-05-23T08:25:23.870Z,1017.8
2017-05-23T08:26:26.717Z,1017.8
2017-05-23T08:27:29.569Z,1017.8
2017-05-23T08:28:33.136Z,1017.8
2017-05-23T08:29:35.487Z,1017.8
2017-05-23T08:30:38.707Z,1017.8
2017-05-23T08:31:41.555Z,1017.8
2017-05-23T08:32:44.400Z,1017.8
2017-05-23T08:33:47.867Z,1017.8
2017-05-23T08:34:50.214Z,1017.8
2017-05-23T08:35:53.431Z,1017.7
2017-05-23T08:36:56.290Z,1017.7
2017-05-23T08:37:59.134Z,1017.7
2017-05-23T08:39:02.236Z,1017.7
2017-05-23T08:40:05.091Z,1017.7
2017-05-23T08:41:07.805Z,1017.7
2017-05-23T08:42:11.159Z,1017.7
2017-05-23T08:43:14.009Z,1017.7
2017-05-23T08:44:16.976Z,1017.8
2017-05-23T08:45:19.693Z,1017.8
2017-05-23T08:46:22.540Z,1017.7
2017-05-23T08:47:25.886Z,1017.8
2017-05-23T08:48:28.605Z,1017.8
2017-05-23T08:50:34.629Z,1017.7
2017-05-23T08:51:37.487Z,1017.8
2017-05-23T08:52:40.205Z,1017.8
2017-05-23T08:53:43.560Z,1017.7
2017-05-23T08:54:46.402Z,1017.8
2017-05-23T08:55:49.369Z,1017.7
2017-05-23T08:56:52.219Z,1017.7
2017-05-23T08:57:54.941Z,1017.7
2017-05-23T08:58:58.295Z,1017.7
2017-05-23T09:00:01.151Z,1017.6
2017-05-23T09:01:04.232Z,1017.7
2017-05-23T09:02:07.084Z,1017.7
2017-05-23T09:03:09.933Z,1017.7
2017-05-23T09:04:13.024Z,1017.7
2017-05-23T09:05:15.608Z,1017.6
2017-05-23T09:06:19.266Z,1017.6
2017-05-23T09:07:21.609Z,1017.7
2017-05-23T09:08:24.966Z,1017.7
2017-05-23T09:09:27.819Z,1017.6
2017-05-23T09:10:30.538Z,1017.6
2017-05-23T09:11:33.692Z,1017.6
2017-05-23T09:12:36.538Z,1017.6
2017-05-23T09:13:39.390Z,1017.6
2017-05-23T09:14:42.609Z,1017.6
2017-05-23T09:15:45.330Z,1017.6
2017-05-23T09:16:48.800Z,1017.5
2017-05-23T09:17:51.513Z,1017.6
2017-05-23T09:18:54.364Z,1017.5
2017-05-23T09:19:57.085Z,1017.6
2017-05-23T09:21:00.176Z,1017.5
2017-05-23T09:22:03.274Z,1017.5
2017-05-23T09:23:06.358Z,1017.5
2017-05-23T09:24:09.443Z,1017.5
2017-05-23T09:25:12.299Z,1017.5
2017-05-23T09:26:15.145Z,1017.5
2017-05-23T09:27:18.615Z,1017.5
2017-05-23T09:28:20.965Z,1017.5
2017-05-23T09:29:24.320Z,1017.5
2017-05-23T09:30:27.039Z,1017.5
2017-05-23T09:31:29.889Z,1017.5
2017-05-23T09:32:33.362Z,1017.5
2017-05-23T09:33:36.212Z,1017.5
2017-05-23T09:34:39.059Z,1017.5
2017-05-23T09:35:41.771Z,1017.5
2017-05-23T09:36:44.863Z,1017.5
2017-05-23T09:37:48.070Z,1017.5
2017-05-23T09:38:50.784Z,1017.5
2017-05-23T09:39:54.131Z,1017.5
2017-05-23T09:40:56.990Z,1017.6
2017-05-23T09:41:59.853Z,1017.6
2017-05-23T09:43:03.063Z,1017.5
2017-05-23T09:44:05.777Z,1017.5
2017-05-23T09:45:09.128Z,1017.5
2017-05-23T09:46:11.980Z,1017.5
2017-05-23T09:47:14.827Z,1017.5
2017-05-23T09:48:18.351Z,1017.5
2017-05-23T09:49:20.755Z,1017.4
2017-05-23T09:50:23.864Z,1017.5
2017-05-23T09:51:27.222Z,1017.5
2017-05-23T09:52:29.869Z,1017.4
2017-05-23T09:53:33.394Z,1017.4
2017-05-23T09:54:36.245Z,1017.4
2017-05-23T09:55:39.098Z,1017.4
2017-05-23T09:56:41.950Z,1017.4
2017-05-23T09:57:44.802Z,1017.4
2017-05-23T09:58:48.409Z,1017.4
2017-05-23T10:00:54.182Z,1017.3
2017-05-23T10:02:59.945Z,1017.3
2017-05-23T10:04:03.547Z,1017.3
2017-05-23T10:05:06.268Z,1017.3
2017-05-23T10:06:09.124Z,1017.2
2017-05-23T10:07:12.034Z,1017.2
2017-05-23T10:08:15.251Z,1017.2
2017-05-23T10:09:18.282Z,1017.2
2017-05-23T10:10:20.997Z,1017.1
2017-05-23T10:11:24.347Z,1017.2
2017-05-23T10:12:27.070Z,1017.2
2017-05-23T10:13:29.922Z,1017.1
2017-05-23T10:14:33.527Z,1017.2
2017-05-23T10:15:35.875Z,1017.2
2017-05-23T10:16:39.099Z,1017.1
2017-05-23T10:17:41.946Z,1017.1
2017-05-23T10:18:45.304Z,1017.1
2017-05-23T10:19:48.454Z,1017.1
2017-05-23T10:20:51.305Z,1017.1
2017-05-23T10:21:54.225Z,1017
2017-05-23T10:22:56.939Z,1017.1
2017-05-23T10:24:00.016Z,1017.1
2017-05-23T10:25:03.120Z,1017.1
2017-05-23T10:26:06.205Z,1017.1
2017-05-23T10:28:11.831Z,1017.1
2017-05-23T10:29:15.048Z,1017
2017-05-23T10:30:18.075Z,1017.1
2017-05-23T10:31:20.921Z,1017.1
2017-05-23T10:32:23.642Z,1017.1
2017-05-23T10:33:26.999Z,1017.1
2017-05-23T10:34:29.852Z,1017
2017-05-23T10:35:32.813Z,1017.1
2017-05-23T10:36:35.453Z,1017
2017-05-23T10:37:38.668Z,1017
2017-05-23T10:38:41.519Z,1017
2017-05-23T10:39:44.373Z,1017
2017-05-23T10:40:47.844Z,1017
2017-05-23T10:41:50.689Z,1017
2017-05-23T10:42:53.404Z,1017
2017-05-23T10:43:56.262Z,1016.9
2017-05-23T10:46:02.781Z,1016.9
2017-05-23T10:47:05.127Z,1017
2017-05-23T10:48:08.489Z,1017
2017-05-23T10:49:11.333Z,1017
2017-05-23T10:50:14.183Z,1017
2017-05-23T10:51:17.436Z,1017
2017-05-23T10:52:20.281Z,1017
2017-05-23T10:53:22.996Z,1016.9
2017-05-23T10:54:26.216Z,1017
2017-05-23T10:56:32.474Z,1016.9
2017-05-23T10:57:34.825Z,1017
2017-05-23T10:58:38.189Z,1016.9
2017-05-23T10:59:40.918Z,1016.9
2017-05-23T11:00:43.770Z,1016.8
2017-05-23T11:01:46.925Z,1016.8
2017-05-23T11:02:49.771Z,1016.8
2017-05-23T11:03:52.622Z,1016.8
2017-05-23T11:04:55.471Z,1016.8
2017-05-23T11:05:58.557Z,1016.8
2017-05-23T11:07:02.028Z,1016.8
2017-05-23T11:08:04.369Z,1016.8
2017-05-23T11:09:07.587Z,1016.7
2017-05-23T11:10:10.439Z,1016.7
2017-05-23T11:11:13.288Z,1016.7
2017-05-23T11:12:16.767Z,1016.6
2017-05-23T11:13:19.616Z,1016.6
2017-05-23T11:15:25.380Z,1016.7
2017-05-23T11:16:28.227Z,1016.7
2017-05-23T11:17:31.332Z,1016.6
2017-05-23T11:18:34.180Z,1016.7
2017-05-23T11:19:36.898Z,1016.7
2017-05-23T11:20:40.249Z,1016.5
2017-05-23T11:21:42.963Z,1016.6
2017-05-23T11:22:46.064Z,1016.5
2017-05-23T11:23:48.911Z,1016.5
2017-05-23T11:24:51.860Z,1016.5
2017-05-23T11:25:55.078Z,1016.5
2017-05-23T11:26:57.932Z,1016.5
2017-05-23T11:28:01.033Z,1016.5
2017-05-23T11:29:03.889Z,1016.5
2017-05-23T11:30:06.794Z,1016.5
2017-05-23T11:31:09.508Z,1016.5
2017-05-23T11:32:12.862Z,1016.6
2017-05-23T11:33:15.691Z,1016.5
2017-05-23T11:34:18.542Z,1016.5
2017-05-23T11:35:21.397Z,1016.6
2017-05-23T11:36:24.752Z,1016.6
2017-05-23T11:37:27.334Z,1016.5
2017-05-23T11:38:30.935Z,1016.6
2017-05-23T11:39:33.283Z,1016.5
2017-05-23T11:40:36.567Z,1016.5
2017-05-23T11:41:39.287Z,1016.5
2017-05-23T11:42:42.505Z,1016.5
2017-05-23T11:43:45.472Z,1016.4
2017-05-23T11:44:48.328Z,1016.4
2017-05-23T11:45:51.180Z,1016.4
2017-05-23T11:46:54.394Z,1016.4
2017-05-23T11:47:57.244Z,1016.4
2017-05-23T11:49:00.211Z,1016.4
2017-05-23T11:50:03.059Z,1016.3
2017-05-23T11:51:06.225Z,1016.3
2017-05-23T11:52:09.089Z,1016.3
2017-05-23T11:53:11.945Z,1016.3
2017-05-23T11:54:15.488Z,1016.3
2017-05-23T11:55:18.215Z,1016.4
2017-05-23T11:56:21.062Z,1016.3
2017-05-23T11:57:23.922Z,1016.4
2017-05-23T11:58:27.139Z,1016.4
2017-05-23T11:59:30.106Z,1016.4
2017-05-23T12:00:32.959Z,1016.4
2017-05-23T12:01:35.807Z,1016.4
2017-05-23T12:02:38.657Z,1016.5
2017-05-23T12:03:41.875Z,1016.4
2017-05-23T12:04:44.981Z,1016.4
2017-05-23T12:05:47.833Z,1016.4
2017-05-23T12:06:50.555Z,1016.5
2017-05-23T12:07:53.458Z,1016.5
2017-05-23T12:08:56.815Z,1016.4
2017-05-23T12:09:59.917Z,1016.5
2017-05-23T12:11:02.639Z,1016.5
2017-05-23T12:12:05.485Z,1016.4
2017-05-23T12:13:08.703Z,1016.4
2017-05-23T12:14:11.444Z,1016.4
2017-05-23T12:15:14.779Z,1016.4
2017-05-23T12:17:20.543Z,1016.5
2017-05-23T12:18:23.391Z,1016.5
2017-05-23T12:19:26.243Z,1016.5
2017-05-23T12:21:32.628Z,1016.5
2017-05-23T12:22:35.481Z,1016.4
2017-05-23T12:23:38.208Z,1016.6
2017-05-23T12:24:41.426Z,1016.6
2017-05-23T12:25:44.145Z,1016.6
2017-05-23T12:26:47.247Z,1016.5
2017-05-23T12:27:49.964Z,1016.5
2017-05-23T12:28:53.318Z,1016.5
2017-05-23T12:29:56.033Z,1016.5
2017-05-23T12:30:58.875Z,1016.4
2017-05-23T12:32:02.475Z,1016.5
2017-05-23T12:33:05.195Z,1016.5
2017-05-23T12:34:07.981Z,1016.5
2017-05-23T12:35:11.256Z,1016.6
2017-05-23T12:36:13.969Z,1016.6
2017-05-23T12:37:17.177Z,1016.5
2017-05-23T12:38:20.026Z,1016.5
2017-05-23T12:39:22.878Z,1016.5
2017-05-23T12:40:25.726Z,1016.5
2017-05-23T12:41:29.081Z,1016.6
2017-05-23T12:42:32.047Z,1016.5
2017-05-23T12:43:34.901Z,1016.5
2017-05-23T12:44:37.755Z,1016.5
2017-05-23T12:45:40.606Z,1016.5
2017-05-23T12:49:52.948Z,1016.4
2017-05-23T12:50:55.797Z,1016.5
2017-05-23T12:51:58.648Z,1016.5
2017-05-23T12:53:01.866Z,1016.5
2017-05-23T12:54:04.576Z,1016.5
2017-05-23T12:55:08.175Z,1016.5
2017-05-23T12:56:10.892Z,1016.5
2017-05-23T12:57:13.742Z,1016.5
2017-05-23T12:58:16.893Z,1016.5
2017-05-23T12:59:19.614Z,1016.5
2017-05-23T13:00:22.719Z,1016.5
2017-05-23T13:01:25.566Z,1016.5
2017-05-23T13:02:28.418Z,1016.5
2017-05-23T13:03:31.768Z,1016.5
2017-05-23T13:04:34.556Z,1016.5
2017-05-23T13:05:37.661Z,1016.4
2017-05-23T13:06:40.743Z,1016.5
2017-05-23T13:07:43.591Z,1016.5
2017-05-23T13:08:46.449Z,1016.5
2017-05-23T13:09:49.303Z,1016.5
2017-05-23T13:10:52.973Z,1016.5
2017-05-23T13:11:55.320Z,1016.5
2017-05-23T13:12:58.728Z,1016.4
2017-05-23T13:14:01.640Z,1016.4
2017-05-23T13:15:04.488Z,1016.4
2017-05-23T13:16:07.961Z,1016.4
2017-05-23T13:17:10.306Z,1016.4
2017-05-23T13:18:13.391Z,1016.4
2017-05-23T13:19:16.742Z,1016.4
2017-05-23T13:20:19.601Z,1016.4
2017-05-23T13:21:22.701Z,1016.4
2017-05-23T13:22:25.550Z,1016.4
2017-05-23T13:23:28.266Z,1016.4
2017-05-23T13:24:31.626Z,1016.3
2017-05-23T13:25:34.716Z,1016.4
2017-05-23T13:26:37.815Z,1016.4